Time;durP1;ratioP1;P1;durP2;ratioP2;P2;SDS_P1;SDS_P2;PMS_P1;PMS_P2;Temp;Humidity;BMP_temperature;BMP_pressure;BME280_temperature;BME280_humidity;BME280_pressure;Samples;Min_cycle;Max_cycle;Signal;HPM_P1;HPM_P2
2023/07/03 00:02:52;;;;;;;18.77;6.40;;;;;;;16.01;74.88;99975.91;5083841;55;1139051;-76
2023/07/03 00:07:58;;;;;;;22.60;7.20;;;;;;;15.97;74.45;99978.57;5073115;55;1138833;-78
2023/07/03 00:13:04;;;;;;;14.57;7.20;;;;;;;15.89;74.82;99976.72;5077443;56;1162284;-75
2023/07/03 00:18:09;;;;;;;10.74;6.14;;;;;;;15.82;75.09;99985.06;5058269;55;1138726;-74
2023/07/03 00:23:15;;;;;;;16.17;8.03;;;;;;;15.80;75.11;99985.73;5057626;56;1138962;-70
2023/07/03 00:28:21;;;;;;;11.08;6.37;;;;;;;15.73;75.17;99984.23;5077882;56;1138675;-76
2023/07/03 00:33:26;;;;;;;16.60;6.47;;;;;;;15.67;75.18;99985.39;5108733;55;1138869;-75
2023/07/03 00:38:32;;;;;;;13.30;6.73;;;;;;;15.58;75.84;99996.55;5133340;56;1138964;-75
2023/07/03 00:43:43;;;;;;;12.88;6.17;;;;;;;15.52;75.77;99988.33;5133552;56;1138929;-76
2023/07/03 00:48:49;;;;;;;22.87;7.57;;;;;;;15.48;75.98;99993.14;5153563;56;1138690;-73
2023/07/03 00:53:54;;;;;;;16.77;6.10;;;;;;;15.44;76.23;99995.30;5104291;55;1138901;-76
2023/07/03 00:59:01;;;;;;;13.80;6.37;;;;;;;15.40;77.19;99996.64;5107454;55;1138834;-76
2023/07/03 01:04:23;;;;;;;14.33;7.00;;;;;;;15.37;77.07;100002.28;5149015;56;1138857;-74
2023/07/03 01:09:33;;;;;;;15.40;5.87;;;;;;;15.35;76.82;100005.61;5034262;55;1140705;-77
2023/07/03 01:14:41;;;;;;;13.77;6.50;;;;;;;15.34;77.33;100008.43;5120302;55;1141159;-75
2023/07/03 01:19:49;;;;;;;10.63;5.65;;;;;;;15.31;77.18;100011.41;5124139;55;1141425;-72
2023/07/03 01:25:01;;;;;;;17.23;6.57;;;;;;;15.26;76.92;100002.59;5144507;55;1141014;-74
2023/07/03 01:30:10;;;;;;;18.17;5.77;;;;;;;15.23;76.83;100009.57;5126154;55;1140951;-73
2023/07/03 01:35:18;;;;;;;13.70;6.90;;;;;;;15.19;76.94;100002.05;5210486;55;1140969;-73
2023/07/03 01:40:26;;;;;;;14.38;5.80;;;;;;;15.14;76.97;99998.03;5230884;55;1140918;-73
2023/07/03 01:45:42;;;;;;;16.80;5.70;;;;;;;15.10;77.43;99996.71;5205398;55;1138993;-75
2023/07/03 01:50:49;;;;;;;20.88;7.50;;;;;;;15.09;77.48;99996.87;5167444;55;1139294;-76
2023/07/03 01:56:21;;;;;;;13.77;6.87;;;;;;;15.06;77.34;99990.03;5131880;56;1139102;-77
2023/07/03 02:01:31;;;;;;;19.20;7.40;;;;;;;15.05;77.45;99992.84;5020129;57;1138922;-78
2023/07/03 02:06:41;;;;;;;11.80;6.77;;;;;;;15.02;77.87;99987.84;5073597;56;1138933;-70
2023/07/03 02:11:49;;;;;;;16.93;6.57;;;;;;;14.99;77.74;99987.66;5048842;57;1139198;-72
2023/07/03 02:16:54;;;;;;;14.60;6.40;;;;;;;14.98;77.74;99987.81;5068705;57;1138892;-76
2023/07/03 02:22:01;;;;;;;15.83;7.07;;;;;;;14.93;77.94;99997.63;5043730;57;1138830;-71
2023/07/03 02:27:07;;;;;;;12.15;6.28;;;;;;;14.89;78.11;99994.11;4991765;57;1138784;-72
2023/07/03 02:32:13;;;;;;;13.80;7.25;;;;;;;14.88;78.23;99991.94;4952039;58;1138943;-75
2023/07/03 02:37:20;;;;;;;16.35;6.42;;;;;;;14.85;78.39;99994.91;4962601;58;1139032;-70
2023/07/03 02:42:26;;;;;;;12.87;7.23;;;;;;;14.81;78.37;100000.73;4994978;57;1138948;-74
2023/07/03 02:47:36;;;;;;;12.60;6.63;;;;;;;14.73;78.89;99999.69;5005617;56;1141183;-68
2023/07/03 02:52:43;;;;;;;17.13;7.93;;;;;;;14.67;79.16;100002.13;5067843;57;1139023;-76
2023/07/03 02:57:49;;;;;;;19.63;6.43;;;;;;;14.60;79.25;100004.61;5043443;56;1141176;-76
2023/07/03 03:02:55;;;;;;;15.07;7.03;;;;;;;14.52;79.22;99999.72;5044985;57;1141190;-72
2023/07/03 03:08:01;;;;;;;14.70;7.10;;;;;;;14.47;79.88;100006.86;4982277;57;1138901;-75
2023/07/03 03:13:06;;;;;;;19.80;7.40;;;;;;;14.40;80.83;99998.66;4962917;57;1140807;-71
2023/07/03 03:18:13;;;;;;;16.93;7.28;;;;;;;14.35;81.07;99996.94;5011083;56;1139060;-75
2023/07/03 03:23:18;;;;;;;17.03;7.57;;;;;;;14.34;81.60;99991.77;5105502;56;1138855;-73
2023/07/03 03:28:24;;;;;;;11.83;5.77;;;;;;;14.34;81.60;99991.77;5096520;56;1138791;-76
2023/07/03 03:33:30;;;;;;;18.20;6.28;;;;;;;14.33;81.72;99997.59;5007351;56;1138696;-75
2023/07/03 03:38:35;;;;;;;13.40;6.67;;;;;;;14.30;82.32;100007.20;5011582;57;1138913;-74
2023/07/03 03:43:41;;;;;;;14.47;6.53;;;;;;;14.29;82.01;99999.38;4976361;56;1140690;-70
2023/07/03 03:48:47;;;;;;;13.43;6.50;;;;;;;14.28;82.40;100005.19;5124485;56;1138727;-71
2023/07/03 03:53:53;;;;;;;14.17;6.67;;;;;;;14.32;82.50;99993.26;5039620;57;1140819;-71
2023/07/03 03:59:00;;;;;;;16.37;7.57;;;;;;;14.37;82.54;99996.27;4977777;58;1139152;-75
2023/07/03 04:04:05;;;;;;;21.17;7.00;;;;;;;14.41;82.41;99997.66;4964326;58;1139411;-73
2023/07/03 04:09:11;;;;;;;16.43;6.73;;;;;;;14.45;82.71;99990.70;5136902;56;1138959;-75
2023/07/03 04:14:17;;;;;;;14.77;7.00;;;;;;;14.52;82.62;99993.06;5156592;56;1138739;-74
2023/07/03 04:19:23;;;;;;;11.73;6.28;;;;;;;14.59;82.64;99991.45;5137087;56;1138978;-73
2023/07/03 04:24:28;;;;;;;18.00;6.37;;;;;;;14.67;83.12;99994.15;5136877;56;1138765;-76
2023/07/03 04:29:34;;;;;;;17.93;6.60;;;;;;;14.78;83.13;99989.91;5136394;56;1138853;-72
2023/07/03 04:34:39;;;;;;;17.73;6.93;;;;;;;14.93;83.14;99986.15;5078008;56;1138862;-69
2023/07/03 04:39:45;;;;;;;11.20;6.20;;;;;;;15.08;83.23;99985.37;5091888;56;1138742;-75
2023/07/03 04:44:51;;;;;;;17.47;5.67;;;;;;;15.22;82.68;99987.09;5136654;56;1138793;-73
2023/07/03 04:49:58;;;;;;;15.27;6.47;;;;;;;15.31;82.40;99984.77;5156900;56;1138916;-72
2023/07/03 04:55:05;;;;;;;15.83;6.63;;;;;;;15.36;82.65;99983.30;5096089;56;1138799;-71
2023/07/03 05:00:18;;;;;;;10.73;5.00;;;;;;;15.45;82.23;99984.14;5137489;56;1138875;-72
2023/07/03 05:05:24;;;;;;;12.47;6.72;;;;;;;15.53;82.24;99989.50;5157454;55;1138879;-72
2023/07/03 05:10:30;;;;;;;10.40;5.72;;;;;;;15.66;82.35;99991.22;5137556;56;1139010;-74
2023/07/03 05:15:36;;;;;;;17.53;8.70;;;;;;;15.80;82.05;99990.56;5137210;56;1139308;-74
2023/07/03 05:20:44;;;;;;;15.13;6.30;;;;;;;15.89;81.30;99989.25;5091357;56;1139027;-74
2023/07/03 05:25:49;;;;;;;13.37;6.67;;;;;;;15.93;81.18;99991.90;4988993;58;1138887;-76
2023/07/03 05:30:57;;;;;;;12.43;6.80;;;;;;;15.94;81.24;99982.41;5052205;57;1138901;-73
2023/07/03 05:36:03;;;;;;;9.90;5.83;;;;;;;16.09;82.53;99983.40;5133683;56;1138835;-70
2023/07/03 05:41:10;;;;;;;17.93;5.93;;;;;;;16.29;82.44;99991.06;5156763;56;1136791;-70
2023/07/03 05:46:15;;;;;;;18.40;6.17;;;;;;;16.46;82.20;99995.38;5136894;56;1155540;-75
2023/07/03 05:51:21;;;;;;;14.73;6.90;;;;;;;16.62;81.88;99991.34;5049160;57;1138717;-71
2023/07/03 05:56:29;;;;;;;19.37;7.28;;;;;;;16.75;80.83;99987.66;5057933;57;1138878;-72
2023/07/03 06:01:34;;;;;;;18.03;6.47;;;;;;;16.82;80.60;99992.63;4969479;58;1138783;-75
2023/07/03 06:06:40;;;;;;;16.12;5.40;;;;;;;16.97;80.04;99998.09;5051307;57;1138808;-76
2023/07/03 06:11:46;;;;;;;17.20;6.47;;;;;;;16.92;78.25;99993.78;5071167;57;1138872;-70
2023/07/03 06:16:53;;;;;;;12.60;6.60;;;;;;;16.92;78.25;99993.78;5051205;57;1138673;-71
2023/07/03 06:21:59;;;;;;;21.67;6.73;;;;;;;17.07;79.02;100003.25;5051194;57;1138590;-71
2023/07/03 06:27:06;;;;;;;17.17;6.70;;;;;;;17.24;78.95;100003.52;5070411;56;1140889;-74
2023/07/03 06:32:12;;;;;;;15.27;6.53;;;;;;;17.39;78.07;99991.57;5051753;56;1141028;-72
2023/07/03 06:37:18;;;;;;;17.93;6.40;;;;;;;17.50;77.11;99988.48;5051294;57;1138826;-70
2023/07/03 06:42:23;;;;;;;10.25;5.80;;;;;;;17.52;75.81;100002.52;5071260;57;1138804;-73
2023/07/03 06:47:31;;;;;;;16.42;5.50;;;;;;;17.49;76.61;100041.63;5050634;56;1140956;-73
2023/07/03 06:52:38;;;;;;;17.37;6.23;;;;;;;17.38;77.93;100034.02;5051215;56;1141701;-72
2023/07/03 06:57:44;;;;;;;11.40;5.93;;;;;;;17.34;78.90;100034.02;5052896;56;1140865;-72
2023/07/03 07:02:49;;;;;;;13.37;5.83;;;;;;;17.30;79.36;100030.02;5071517;56;1140949;-73
2023/07/03 07:07:55;;;;;;;16.73;6.17;;;;;;;17.28;79.56;100018.67;5052591;56;1140815;-74
2023/07/03 07:13:00;;;;;;;21.23;6.50;;;;;;;17.36;80.40;100019.48;5057759;56;1140789;-76
2023/07/03 07:18:09;;;;;;;12.63;6.07;;;;;;;17.52;80.36;100014.55;5088023;56;1140914;-76
2023/07/03 07:23:15;;;;;;;14.20;6.50;;;;;;;17.67;78.25;100012.82;5061702;56;1141022;-74
2023/07/03 07:28:20;;;;;;;21.83;7.13;;;;;;;17.81;77.65;100013.39;5068644;56;1140870;-73
2023/07/03 07:33:26;;;;;;;15.93;6.85;;;;;;;17.92;77.08;100011.62;5092224;56;1140947;-72
2023/07/03 07:38:32;;;;;;;18.23;6.20;;;;;;;18.09;74.87;100002.14;5074053;56;1140939;-71
2023/07/03 07:43:37;;;;;;;11.10;6.22;;;;;;;18.25;72.80;99999.32;5064392;56;1140866;-71
2023/07/03 07:48:45;;;;;;;20.43;6.20;;;;;;;18.43;74.51;99994.98;5113844;56;1138985;-76
2023/07/03 07:53:51;;;;;;;17.00;6.80;;;;;;;18.69;71.43;99996.73;5048656;56;1138860;-73
2023/07/03 07:58:58;;;;;;;11.15;5.83;;;;;;;18.87;72.65;99998.55;5051758;57;1138881;-74
2023/07/03 08:04:04;;;;;;;19.03;6.83;;;;;;;19.08;72.71;99990.27;5071381;56;1138720;-72
2023/07/03 08:09:09;;;;;;;14.43;6.30;;;;;;;19.13;71.01;99982.48;5024580;57;1138641;-75
2023/07/03 08:14:15;;;;;;;11.03;6.27;;;;;;;19.19;69.32;99985.77;5058455;56;1138851;-71
2023/07/03 08:19:21;;;;;;;17.90;6.25;;;;;;;19.19;68.61;99981.23;5075717;56;1139076;-72
2023/07/03 08:24:26;;;;;;;16.12;7.42;;;;;;;19.43;66.10;99978.72;5057967;56;1138647;-76
2023/07/03 08:29:32;;;;;;;15.45;6.10;;;;;;;19.43;66.10;99978.72;5057314;56;1138773;-74
2023/07/03 08:34:40;;;;;;;12.27;6.73;;;;;;;19.56;67.00;99974.87;5112677;56;1138848;-73
2023/07/03 08:39:46;;;;;;;22.90;7.28;;;;;;;19.86;67.99;99956.80;5162996;55;1138870;-75
2023/07/03 08:44:52;;;;;;;13.35;7.30;;;;;;;20.09;65.41;99955.77;5142858;56;1138953;-71
2023/07/03 08:50:02;;;;;;;17.27;8.00;;;;;;;20.25;65.19;99963.53;5079793;56;1138769;-71
2023/07/03 08:55:12;;;;;;;17.25;7.47;;;;;;;20.28;65.94;99954.58;5126214;56;1138930;-72
2023/07/03 09:00:18;;;;;;;16.35;8.13;;;;;;;20.40;64.50;99949.52;5143009;56;1138634;-73
2023/07/03 09:05:57;;;;;;;22.10;7.65;;;;;;;20.55;64.55;99946.21;5076981;55;1139085;-75
2023/07/03 09:11:04;;;;;;;17.40;8.00;;;;;;;20.65;61.55;99952.05;4998381;57;1138775;-74
2023/07/03 09:16:22;;;;;;;18.15;7.78;;;;;;;20.67;61.62;99947.31;5168919;55;1138890;-74
2023/07/03 09:21:30;;;;;;;15.00;7.67;;;;;;;20.86;61.77;99939.05;5126550;55;1139022;-74
2023/07/03 09:26:49;;;;;;;19.10;7.90;;;;;;;21.11;63.69;99947.92;5132892;56;1138800;-75
2023/07/03 09:31:55;;;;;;;15.53;8.63;;;;;;;21.44;60.63;99948.90;5132256;56;1138822;-76
2023/07/03 09:37:03;;;;;;;18.90;8.33;;;;;;;21.79;61.51;99952.80;5203596;55;1138878;-75
2023/07/03 09:42:09;;;;;;;22.73;8.45;;;;;;;21.95;58.86;99941.11;5220097;55;1138739;-73
2023/07/03 09:47:26;;;;;;;15.03;8.03;;;;;;;21.95;59.42;99937.59;5203639;54;1139154;-76
2023/07/03 09:52:32;;;;;;;24.32;8.50;;;;;;;21.94;60.88;99935.94;5147769;55;1139008;-74
2023/07/03 09:57:40;;;;;;;20.77;8.80;;;;;;;22.12;61.19;99934.00;5228405;55;1139054;-73
2023/07/03 10:02:47;;;;;;;19.30;9.60;;;;;;;22.41;57.04;99937.08;5191866;55;1138620;-72
2023/07/03 10:07:56;;;;;;;22.90;9.45;;;;;;;22.67;59.05;99928.61;5174992;55;1139040;-72
2023/07/03 10:13:14;;;;;;;18.65;10.72;;;;;;;22.87;56.60;99938.03;5188560;55;1139026;-72
2023/07/03 10:18:30;;;;;;;24.50;11.10;;;;;;;22.73;57.30;99920.52;5176382;55;1141252;-76
2023/07/03 10:23:39;;;;;;;25.15;11.18;;;;;;;22.54;57.97;99941.61;5219166;55;1140984;-74
2023/07/03 10:28:58;;;;;;;21.80;10.10;;;;;;;22.34;58.72;99927.33;5198175;55;1140888;-75
2023/07/03 10:34:10;;;;;;;20.00;9.18;;;;;;;22.14;59.29;99918.47;5229619;55;1140920;-72
2023/07/03 10:39:20;;;;;;;20.52;9.53;;;;;;;21.73;60.23;99936.42;5211065;55;1138611;-75
2023/07/03 10:44:37;;;;;;;27.95;10.25;;;;;;;21.73;60.23;99936.42;5210015;55;1138853;-75
2023/07/03 10:49:43;;;;;;;20.52;11.20;;;;;;;21.84;61.90;99928.80;5224319;55;1140916;-73
2023/07/03 10:55:17;;;;;;;15.78;10.82;;;;;;;22.16;62.30;99927.14;5240849;55;1140939;-73
2023/07/03 11:00:57;;;;;;;23.46;11.26;;;;;;;22.36;60.36;99925.26;5213178;55;1142917;-74
2023/07/03 11:06:10;;;;;;;27.13;13.35;;;;;;;22.69;63.18;99927.36;5210556;55;1140758;-75
2023/07/03 11:12:03;;;;;;;22.05;10.25;;;;;;;22.75;56.96;99929.74;5222348;55;1140935;-76
2023/07/03 11:17:20;;;;;;;17.60;10.27;;;;;;;22.62;58.25;99921.67;5142517;55;1140831;-78
2023/07/03 11:22:29;;;;;;;22.58;11.20;;;;;;;22.67;60.14;99932.66;5021880;57;1140827;-76
2023/07/03 11:28:00;;;;;;;20.50;11.12;;;;;;;22.61;58.68;99931.63;5121285;55;1140953;-74
2023/07/03 11:33:06;;;;;;;22.20;9.93;;;;;;;22.36;57.98;99941.42;5115216;55;1141002;-74
2023/07/03 11:38:18;;;;;;;19.27;10.55;;;;;;;22.28;58.60;99934.92;5210621;55;1139238;-77
2023/07/03 11:43:41;;;;;;;21.87;10.25;;;;;;;22.39;57.48;99941.84;5219274;55;1140718;-75
2023/07/03 11:48:57;;;;;;;20.90;9.95;;;;;;;22.63;59.31;99935.45;5085958;56;1141191;-76
2023/07/03 11:54:21;;;;;;;24.50;11.85;;;;;;;22.65;59.32;99933.38;5169085;55;1138879;-74
2023/07/03 11:59:34;;;;;;;24.35;12.00;;;;;;;22.46;60.44;99939.95;5173677;55;1141249;-71
2023/07/03 12:04:49;;;;;;;22.83;11.10;;;;;;;22.23;59.77;99950.88;5061515;56;1140891;-74
2023/07/03 12:10:14;;;;;;;21.55;9.93;;;;;;;22.04;60.63;99941.23;5090912;55;1141031;-71
2023/07/03 12:15:20;;;;;;;16.17;9.80;;;;;;;22.16;60.92;99947.34;5115668;55;1138749;-73
2023/07/03 12:20:25;;;;;;;22.60;9.70;;;;;;;22.55;61.44;99955.39;5101311;55;1138915;-72
2023/07/03 12:25:31;;;;;;;20.37;10.05;;;;;;;22.64;59.22;99948.73;5135267;55;1138895;-76
2023/07/03 12:30:38;;;;;;;19.35;9.15;;;;;;;22.72;58.81;99956.60;5142279;55;1140784;-75
2023/07/03 12:35:45;;;;;;;17.92;8.73;;;;;;;22.72;58.81;99956.60;5121531;55;1138883;-75
2023/07/03 12:40:51;;;;;;;19.53;9.50;;;;;;;22.71;59.02;99959.51;5100272;55;1138841;-73
2023/07/03 12:45:57;;;;;;;16.05;8.43;;;;;;;22.84;58.27;99959.50;5098803;55;1138860;-74
2023/07/03 12:51:02;;;;;;;18.35;9.33;;;;;;;23.14;57.98;99966.55;5117095;55;1138900;-71
2023/07/03 12:56:11;;;;;;;17.50;8.73;;;;;;;23.14;57.98;99966.55;5089125;55;1138842;-76
2023/07/03 13:01:18;;;;;;;19.87;8.78;;;;;;;23.36;54.23;99958.98;5057120;55;1138726;-73
2023/07/03 13:06:30;;;;;;;18.92;9.20;;;;;;;23.42;54.57;99968.38;5080260;56;1257978;-76
2023/07/03 13:11:46;;;;;;;17.12;8.55;;;;;;;23.52;53.30;99959.86;5047513;56;1138990;-76
2023/07/03 13:17:07;;;;;;;19.85;9.98;;;;;;;23.26;53.20;99962.13;5193430;54;1138687;-78
2023/07/03 13:22:13;;;;;;;18.17;7.97;;;;;;;23.25;54.82;99972.61;5246617;54;1138975;-74
2023/07/03 13:27:25;;;;;;;20.93;9.73;;;;;;;23.27;54.76;99962.44;5144951;55;1138805;-74
2023/07/03 13:32:31;;;;;;;17.77;8.63;;;;;;;23.32;55.59;99968.55;5143638;55;1138659;-77
2023/07/03 13:37:38;;;;;;;21.63;9.30;;;;;;;23.12;54.86;99976.72;5144485;55;1138802;-74
2023/07/03 13:42:44;;;;;;;15.63;8.55;;;;;;;23.26;55.23;99960.78;5168234;55;1139016;-70
2023/07/03 13:47:49;;;;;;;25.90;9.38;;;;;;;23.40;56.54;99966.41;5098816;55;1138754;-71
2023/07/03 13:52:55;;;;;;;22.67;8.58;;;;;;;23.55;56.97;99973.42;5135515;55;1138798;-73
2023/07/03 13:58:01;;;;;;;19.23;9.35;;;;;;;23.71;53.40;99971.56;5091713;55;1139404;-73
2023/07/03 14:03:07;;;;;;;15.30;7.90;;;;;;;23.86;55.16;99970.73;5198583;55;1138680;-74
2023/07/03 14:08:12;;;;;;;17.98;7.08;;;;;;;24.06;53.37;99965.19;5222793;55;1138738;-74
2023/07/03 14:13:18;;;;;;;12.95;6.10;;;;;;;24.09;51.70;99972.34;5242006;55;1138874;-73
2023/07/03 14:18:23;;;;;;;16.02;6.70;;;;;;;23.90;50.07;99976.53;5220874;55;1138921;-73
2023/07/03 14:23:29;;;;;;;20.05;7.87;;;;;;;23.56;50.87;99974.55;5097827;55;1139114;-73
2023/07/03 14:28:34;;;;;;;19.17;8.05;;;;;;;23.36;53.38;99988.15;5205097;55;1138879;-74
2023/07/03 14:33:40;;;;;;;16.48;7.20;;;;;;;23.24;52.68;99988.48;5139631;56;1139315;-71
2023/07/03 14:38:46;;;;;;;18.42;7.72;;;;;;;23.17;53.95;99982.83;5113254;55;1138921;-70
2023/07/03 14:43:52;;;;;;;19.05;7.25;;;;;;;23.14;54.25;99988.95;5060985;56;1138997;-73
2023/07/03 14:48:57;;;;;;;17.27;6.40;;;;;;;23.26;53.47;99990.98;5159019;55;1138735;-73
2023/07/03 14:54:03;;;;;;;14.45;6.92;;;;;;;23.19;51.13;99991.54;5138750;55;1138901;-75
2023/07/03 14:59:08;;;;;;;13.05;6.53;;;;;;;23.30;52.44;99995.74;5142734;55;1138837;-74
2023/07/03 15:04:14;;;;;;;14.83;6.65;;;;;;;23.08;51.96;99988.45;5158666;55;1138907;-74
2023/07/03 15:09:20;;;;;;;17.82;6.85;;;;;;;22.90;54.05;100009.07;4974459;57;1138668;-69
2023/07/03 15:14:25;;;;;;;14.45;6.67;;;;;;;22.84;54.61;100015.30;5072940;56;1141025;-74
2023/07/03 15:19:31;;;;;;;12.73;6.58;;;;;;;22.95;54.26;100018.68;5092568;56;1140915;-73
2023/07/03 15:24:37;;;;;;;15.87;6.30;;;;;;;22.80;53.50;100022.97;5093513;56;1141042;-77
2023/07/03 15:29:43;;;;;;;17.42;6.62;;;;;;;22.58;53.63;100024.23;5140314;55;1140873;-71
2023/07/03 15:34:53;;;;;;;16.05;5.58;;;;;;;22.44;55.21;100024.24;5125342;54;1141069;-75
2023/07/03 15:39:58;;;;;;;11.55;5.72;;;;;;;22.42;55.10;100029.52;5051545;56;1141082;-74
2023/07/03 15:45:04;;;;;;;17.52;7.03;;;;;;;22.54;53.74;100037.28;5141422;55;1141035;-71
2023/07/03 15:50:10;;;;;;;14.70;5.58;;;;;;;22.45;54.26;100037.20;5161921;55;1140996;-77
2023/07/03 15:55:18;;;;;;;17.50;5.00;;;;;;;22.62;53.39;100038.92;5140475;55;1141255;-73
2023/07/03 16:00:23;;;;;;;13.38;6.12;;;;;;;22.62;52.28;100034.36;5138983;55;1140789;-75
2023/07/03 16:05:29;;;;;;;12.98;6.17;;;;;;;22.73;52.99;100039.66;5193699;55;1140840;-73
2023/07/03 16:10:34;;;;;;;14.33;5.03;;;;;;;22.76;50.72;100029.81;5188404;55;1141046;-75
2023/07/03 16:15:40;;;;;;;13.13;5.40;;;;;;;22.94;48.83;100038.59;5156579;55;1140981;-71
2023/07/03 16:20:47;;;;;;;14.00;4.65;;;;;;;23.02;48.13;100043.27;5207271;55;1140995;-77
2023/07/03 16:25:57;;;;;;;8.18;4.22;;;;;;;23.12;46.92;100052.25;5187758;55;1141155;-76
2023/07/03 16:31:10;;;;;;;9.30;4.45;;;;;;;23.10;45.68;100059.20;5185768;55;1138728;-77
2023/07/03 16:36:19;;;;;;;10.75;3.80;;;;;;;22.99;44.98;100068.47;5156764;55;1138626;-72
2023/07/03 16:41:26;;;;;;;11.05;4.70;;;;;;;22.96;46.26;100071.06;5172104;55;1140783;-72
2023/07/03 16:46:32;;;;;;;17.80;4.85;;;;;;;22.87;46.20;100076.91;5157577;55;1140926;-76
2023/07/03 16:51:38;;;;;;;8.65;4.15;;;;;;;22.82;47.93;100073.47;5143204;55;1140995;-76
2023/07/03 16:56:43;;;;;;;6.87;4.22;;;;;;;22.74;46.58;100077.20;5082565;56;1138885;-74
2023/07/03 17:01:49;;;;;;;7.20;3.55;;;;;;;22.64;47.23;100079.98;5053205;56;1138733;-72
2023/07/03 17:06:55;;;;;;;12.65;5.03;;;;;;;22.64;47.65;100080.81;5097128;55;1138725;-77
2023/07/03 17:12:00;;;;;;;8.28;4.53;;;;;;;22.46;47.55;100088.16;5231482;55;1140653;-76
2023/07/03 17:17:06;;;;;;;8.58;5.08;;;;;;;22.26;48.65;100085.16;5211244;55;1139110;-70
2023/07/03 17:22:12;;;;;;;13.90;5.08;;;;;;;22.19;49.44;100085.66;5211175;55;1138879;-74
2023/07/03 17:27:17;;;;;;;12.43;5.35;;;;;;;22.17;50.35;100084.51;5176957;55;1140948;-77
2023/07/03 17:32:23;;;;;;;21.42;4.90;;;;;;;22.24;51.34;100088.58;5132875;56;1140769;-72
2023/07/03 17:37:30;;;;;;;23.52;4.72;;;;;;;22.14;50.77;100090.84;5150830;56;1141016;-74
2023/07/03 17:42:36;;;;;;;12.58;4.08;;;;;;;22.14;50.77;100090.84;5133291;56;1140912;-75
2023/07/03 17:47:41;;;;;;;11.68;4.58;;;;;;;22.05;51.04;100088.33;5153200;55;1140788;-76
2023/07/03 17:52:47;;;;;;;13.55;4.15;;;;;;;21.92;51.11;100084.23;5142452;55;1140985;-73
2023/07/03 17:57:54;;;;;;;16.00;4.90;;;;;;;21.78;51.72;100087.91;5182975;55;1140968;-72
2023/07/03 18:03:00;;;;;;;7.83;4.40;;;;;;;21.66;51.87;100082.81;5161838;55;1140800;-75
2023/07/03 18:08:06;;;;;;;9.75;3.98;;;;;;;21.59;52.68;100084.11;5142107;55;1138909;-77
2023/07/03 18:13:11;;;;;;;8.80;4.15;;;;;;;21.54;52.93;100089.80;5142112;56;1138946;-75
2023/07/03 18:18:19;;;;;;;11.33;4.35;;;;;;;21.46;52.75;100096.68;5161764;55;1138534;-71
2023/07/03 18:23:25;;;;;;;8.83;3.58;;;;;;;21.38;53.28;100087.77;5084484;56;1140693;-72
2023/07/03 18:28:31;;;;;;;9.25;3.95;;;;;;;21.33;53.32;100094.77;5001653;57;1138900;-75
2023/07/03 18:33:36;;;;;;;12.78;5.15;;;;;;;21.27;53.02;100096.38;5118032;55;1138908;-74
2023/07/03 18:38:42;;;;;;;18.48;6.87;;;;;;;21.24;53.03;100092.73;5152951;56;1140976;-71
2023/07/03 18:43:48;;;;;;;8.50;5.58;;;;;;;21.21;52.99;100101.22;5137291;55;1140953;-73
2023/07/03 18:48:53;;;;;;;12.23;4.35;;;;;;;21.19;53.38;100096.55;5161377;56;1138740;-73
2023/07/03 18:53:59;;;;;;;11.03;4.67;;;;;;;21.19;53.63;100101.06;5192209;55;1140797;-77
2023/07/03 18:59:05;;;;;;;27.60;7.22;;;;;;;21.17;54.37;100104.46;5202441;55;1140991;-70
2023/07/03 19:04:11;;;;;;;22.82;6.10;;;;;;;21.16;55.60;100104.14;5224716;55;1140859;-72
2023/07/03 19:09:17;;;;;;;14.60;7.22;;;;;;;21.13;56.98;100107.22;5249735;54;1140872;-70
2023/07/03 19:14:23;;;;;;;14.65;7.97;;;;;;;21.16;57.60;100118.42;5226485;54;1141046;-72
2023/07/03 19:19:28;;;;;;;19.27;7.15;;;;;;;21.19;58.03;100119.89;5156892;55;1140694;-75
2023/07/03 19:24:35;;;;;;;10.38;4.26;;;;;;;21.19;58.75;100128.83;5079354;56;1141306;-72
2023/07/03 19:29:41;;;;;;;15.45;5.30;;;;;;;21.13;59.88;100134.95;5059049;56;1141051;-72
2023/07/03 19:34:46;;;;;;;16.73;6.90;;;;;;;21.05;60.78;100144.52;5103011;55;1140926;-72
2023/07/03 19:39:52;;;;;;;9.10;5.60;;;;;;;20.89;61.14;100150.19;5166335;55;1140943;-77
2023/07/03 19:44:58;;;;;;;10.43;4.62;;;;;;;20.69;61.91;100157.56;5231322;55;1138720;-76
2023/07/03 19:50:09;;;;;;;14.87;5.00;;;;;;;20.47;62.13;100155.09;5210096;55;1140911;-75
2023/07/03 19:55:11;;;;;;;12.73;5.15;;;;;;;20.34;62.84;100151.20;5208731;55;1140662;-73
2023/07/03 20:00:16;;;;;;;11.03;5.53;;;;;;;20.40;63.43;100164.92;5167226;55;1140854;-75
2023/07/03 20:05:23;;;;;;;16.62;8.08;;;;;;;20.46;63.91;100161.48;5213981;55;1140613;-72
2023/07/03 20:10:29;;;;;;;14.55;7.22;;;;;;;20.43;63.89;100172.09;5215152;55;1140663;-72
2023/07/03 20:15:35;;;;;;;17.75;6.83;;;;;;;20.27;64.30;100173.14;5212109;55;1141373;-75
2023/07/03 20:20:40;;;;;;;12.78;5.55;;;;;;;20.04;64.71;100176.47;5308920;55;1140646;-75
2023/07/03 20:25:58;;;;;;;14.58;6.53;;;;;;;19.69;65.75;100181.30;5283000;55;1140564;-72
2023/07/03 20:31:05;;;;;;;13.43;6.08;;;;;;;19.45;66.80;100179.69;5216001;55;1141111;-73
2023/07/03 20:36:13;;;;;;;10.98;5.83;;;;;;;19.36;67.85;100182.15;5131939;56;1140740;-73
2023/07/03 20:41:18;;;;;;;13.60;6.10;;;;;;;19.43;68.66;100185.23;5119950;56;1140788;-72
2023/07/03 20:46:24;;;;;;;16.32;8.98;;;;;;;19.40;68.88;100182.11;5109651;56;1140644;-75
2023/07/03 20:51:33;;;;;;;15.72;8.53;;;;;;;19.25;68.93;100185.58;5127171;56;1140759;-76
2023/07/03 20:56:39;;;;;;;16.32;6.78;;;;;;;19.11;69.01;100187.73;5142351;56;1141026;-73
2023/07/03 21:01:45;;;;;;;9.80;5.93;;;;;;;18.97;69.07;100189.87;5142730;56;1140828;-75
2023/07/03 21:06:53;;;;;;;16.00;6.47;;;;;;;18.85;69.15;100191.33;5158812;56;1139368;-75
